createdAt,value
2019-01-17T00:01:26.267Z,3.30
2019-01-17T00:04:34.168Z,4.60
2019-01-17T00:10:28.262Z,2.50
2019-01-17T00:13:12.942Z,4.77
2019-01-17T00:18:54.990Z,3.20
2019-01-17T00:22:01.126Z,2.60
2019-01-17T00:25:02.176Z,3.57
2019-01-17T00:31:08.974Z,2.60
2019-01-17T00:33:51.182Z,2.80
2019-01-17T00:36:57.564Z,2.10
2019-01-17T00:39:57.208Z,2.40
2019-01-17T00:45:40.667Z,2.70
2019-01-17T00:48:46.788Z,2.20
2019-01-17T00:51:33.132Z,2.23
2019-01-17T00:54:19.494Z,1.47
2019-01-17T01:00:07.451Z,1.83
2019-01-17T01:08:56.249Z,1.60
2019-01-17T01:12:02.406Z,1.97
2019-01-17T01:15:08.539Z,1.90
2019-01-17T01:18:14.636Z,1.43
2019-01-17T01:20:58.810Z,1.63
2019-01-17T01:24:04.946Z,1.43
2019-01-17T01:33:01.466Z,2.00
2019-01-17T01:36:00.797Z,2.10
2019-01-17T01:39:06.897Z,2.00
2019-01-17T01:42:12.980Z,1.27
2019-01-17T01:45:19.127Z,1.70
2019-01-17T01:51:06.364Z,1.57
2019-01-17T01:53:32.979Z,1.30
2019-01-17T01:56:19.232Z,1.20
2019-01-17T01:59:09.666Z,1.47
2019-01-17T02:01:50.067Z,1.70
2019-01-17T02:04:16.743Z,1.73
2019-01-17T02:07:02.941Z,2.07
2019-01-17T02:09:43.051Z,2.40
2019-01-17T02:12:09.531Z,3.03
2019-01-17T02:14:55.787Z,3.87
2019-01-17T02:17:42.136Z,4.70
2019-01-17T02:20:22.429Z,4.07
2019-01-17T02:22:48.946Z,4.23
2019-01-17T02:25:15.536Z,4.23
2019-01-17T02:28:01.805Z,4.30
2019-01-17T02:30:41.712Z,3.33
2019-01-17T02:33:27.946Z,3.00
2019-01-17T02:36:08.076Z,3.53
2019-01-17T02:38:54.264Z,2.30
2019-01-17T02:41:20.802Z,2.30
2019-01-17T02:44:07.052Z,2.10
2019-01-17T02:46:53.405Z,1.93
2019-01-17T02:49:20.043Z,1.53
2019-01-17T02:52:06.278Z,1.87
2019-01-17T02:54:35.834Z,2.17
2019-01-17T02:57:20.929Z,2.43
2019-01-17T03:00:00.875Z,2.53
2019-01-17T03:02:47.104Z,2.37
2019-01-17T03:05:33.343Z,2.87
2019-01-17T03:07:59.859Z,2.40
2019-01-17T03:10:46.117Z,2.50
2019-01-17T03:13:32.459Z,2.70
2019-01-17T03:15:59.163Z,2.10
2019-01-17T03:18:45.403Z,2.00
2019-01-17T03:21:25.180Z,1.80
2019-01-17T03:23:51.714Z,1.90
2019-01-17T03:26:18.151Z,2.10
2019-01-17T03:29:04.371Z,2.00
2019-01-17T03:31:44.048Z,2.13
2019-01-17T03:34:10.507Z,2.60
2019-01-17T03:36:56.919Z,2.83
2019-01-17T03:39:43.264Z,2.57
2019-01-17T03:42:23.441Z,2.83
2019-01-17T03:45:10.601Z,2.80
2019-01-17T03:47:50.952Z,2.33
2019-01-17T03:50:37.276Z,2.60
2019-01-17T03:53:03.963Z,2.90
2019-01-17T03:55:50.639Z,2.20
2019-01-17T03:58:37.233Z,2.10
2019-01-17T04:01:17.465Z,2.30
2019-01-17T04:04:03.827Z,1.90
2019-01-17T04:06:30.482Z,1.93
2019-01-17T04:09:16.836Z,1.90
2019-01-17T04:11:56.628Z,1.73
2019-01-17T04:14:42.860Z,2.37
2019-01-17T04:17:22.718Z,1.87
2019-01-17T04:23:23.514Z,1.70
2019-01-17T04:26:03.352Z,1.10
2019-01-17T04:28:49.765Z,1.33
2019-01-17T04:31:29.355Z,1.20
2019-01-17T04:34:15.717Z,1.30
2019-01-17T04:36:42.210Z,1.20
2019-01-17T04:39:28.509Z,1.00
2019-01-17T04:42:14.783Z,1.10
2019-01-17T04:44:41.515Z,1.10
2019-01-17T04:47:08.031Z,0.90
2019-01-17T04:49:54.387Z,0.90
2019-01-17T04:52:34.714Z,1.50
2019-01-17T04:55:21.067Z,0.93
2019-01-17T04:58:00.539Z,2.13
2019-01-17T05:00:40.898Z,1.10
2019-01-17T05:03:27.174Z,1.00
2019-01-17T05:05:53.697Z,1.10
2019-01-17T05:08:40.033Z,1.37
2019-01-17T05:11:26.287Z,1.00
2019-01-17T05:14:06.261Z,1.00
2019-01-17T05:16:32.786Z,1.07
2019-01-17T05:19:19.106Z,1.40
2019-01-17T05:22:05.803Z,1.10
2019-01-17T05:24:45.595Z,1.07
2019-01-17T05:27:31.844Z,1.10
2019-01-17T05:30:15.157Z,1.10
2019-01-17T05:35:35.445Z,1.33
2019-01-17T05:38:21.713Z,0.90
2019-01-17T05:41:01.917Z,0.97
2019-01-17T05:43:48.155Z,1.10
2019-01-17T05:46:28.369Z,1.73
2019-01-17T05:48:54.947Z,1.33
2019-01-17T05:51:43.395Z,1.20
2019-01-17T05:54:29.774Z,1.33
2019-01-17T05:57:10.875Z,1.30
2019-01-17T05:59:51.021Z,1.60
2019-01-17T06:02:17.688Z,1.20
2019-01-17T06:05:04.926Z,1.57
2019-01-17T06:07:31.455Z,1.47
2019-01-17T06:10:17.715Z,1.93
2019-01-17T06:15:45.142Z,1.63
2019-01-17T06:18:11.750Z,1.40
2019-01-17T06:20:58.119Z,1.50
2019-01-17T06:23:37.557Z,1.23
2019-01-17T06:26:04.194Z,1.80
2019-01-17T06:28:50.579Z,1.50
2019-01-17T06:31:30.605Z,2.90
2019-01-17T06:34:17.002Z,2.37
2019-01-17T06:37:03.356Z,1.70
2019-01-17T06:39:49.789Z,1.87
2019-01-17T06:42:29.399Z,1.50
2019-01-17T06:45:15.841Z,1.67
2019-01-17T06:47:42.759Z,1.70
2019-01-17T06:50:28.984Z,2.30
2019-01-17T06:52:55.701Z,1.40
2019-01-17T06:55:22.309Z,1.60
2019-01-17T06:58:08.608Z,1.57
2019-01-17T07:00:48.538Z,1.70
2019-01-17T07:03:15.149Z,1.67
2019-01-17T07:06:01.555Z,1.60
2019-01-17T07:08:43.587Z,1.27
2019-01-17T07:11:10.092Z,1.60
2019-01-17T07:13:56.357Z,1.90
2019-01-17T07:16:36.819Z,2.37
2019-01-17T07:19:16.170Z,1.10
2019-01-17T07:22:02.528Z,1.40
2019-01-17T07:24:42.357Z,1.73
2019-01-17T07:27:28.752Z,1.70
2019-01-17T07:29:55.357Z,1.20
2019-01-17T07:32:41.722Z,1.70
2019-01-17T07:35:21.720Z,1.90
2019-01-17T07:38:07.959Z,1.70
2019-01-17T07:40:51.962Z,2.20
2019-01-17T07:43:38.212Z,2.37
2019-01-17T07:46:04.889Z,1.57
2019-01-17T07:48:31.368Z,2.00
2019-01-17T07:51:17.578Z,1.80
2019-01-17T07:54:03.843Z,1.37
2019-01-17T07:56:50.118Z,2.60
2019-01-17T07:59:30.306Z,2.43
2019-01-17T08:02:16.812Z,1.60
2019-01-17T08:04:56.724Z,1.50
2019-01-17T08:07:42.959Z,2.13
2019-01-17T08:10:22.772Z,1.53
2019-01-17T08:13:09.080Z,1.57
2019-01-17T08:15:48.919Z,2.40
2019-01-17T08:18:35.180Z,1.53
2019-01-17T08:21:15.054Z,1.43
2019-01-17T08:24:01.356Z,1.83
2019-01-17T08:26:41.685Z,2.10
2019-01-17T08:29:27.932Z,1.60
2019-01-17T08:32:07.745Z,1.57
2019-01-17T08:34:54.032Z,1.47
2019-01-17T08:37:33.614Z,1.60
2019-01-17T08:40:35.308Z,1.70
2019-01-17T08:43:01.855Z,1.43
2019-01-17T08:45:28.384Z,2.80
2019-01-17T08:47:55.082Z,1.50
2019-01-17T08:50:41.360Z,1.60
2019-01-17T08:53:27.817Z,1.70
2019-01-17T08:56:00.587Z,1.40
2019-01-17T08:58:42.399Z,2.03
2019-01-17T09:01:22.384Z,1.37
2019-01-17T09:04:08.682Z,1.33
2019-01-17T09:06:48.339Z,1.70
2019-01-17T09:09:34.646Z,1.53
2019-01-17T09:12:21.052Z,1.37
2019-01-17T09:15:01.509Z,1.70
2019-01-17T09:17:47.750Z,1.43
2019-01-17T09:20:14.374Z,1.10
2019-01-17T09:23:00.732Z,1.67
2019-01-17T09:25:47.195Z,1.97
2019-01-17T09:28:27.159Z,1.97
2019-01-17T09:31:13.416Z,1.80
2019-01-17T09:33:40.045Z,1.33
2019-01-17T09:36:26.676Z,1.20
2019-01-17T09:39:06.531Z,1.77
2019-01-17T09:41:53.022Z,1.30
2019-01-17T09:44:19.551Z,1.40
2019-01-17T09:47:05.879Z,2.00
2019-01-17T09:49:52.236Z,1.60
2019-01-17T09:52:32.454Z,1.87
2019-01-17T09:55:18.980Z,2.20
2019-01-17T09:57:58.615Z,2.13
2019-01-17T10:00:44.895Z,2.83
2019-01-17T10:03:25.379Z,2.30
2019-01-17T10:05:51.857Z,1.97
2019-01-17T10:11:50.694Z,2.50
2019-01-17T10:14:17.194Z,1.30
2019-01-17T10:17:04.781Z,1.67
2019-01-17T10:20:11.742Z,1.77
2019-01-17T10:23:11.691Z,1.63
2019-01-17T10:26:21.239Z,1.47
2019-01-17T10:29:05.895Z,2.07
2019-01-17T10:32:12.050Z,1.90
2019-01-17T10:35:18.100Z,1.80
2019-01-17T10:38:02.647Z,2.03
2019-01-17T10:41:08.787Z,1.70
2019-01-17T10:43:51.123Z,2.00
2019-01-17T10:46:59.029Z,1.83
2019-01-17T10:49:46.328Z,2.77
2019-01-17T10:52:52.438Z,2.67
2019-01-17T10:55:51.672Z,2.60
2019-01-17T10:58:57.748Z,2.00
2019-01-17T11:01:58.460Z,1.60
2019-01-17T11:05:06.380Z,1.60
2019-01-17T11:07:54.540Z,2.13
2019-01-17T11:10:54.021Z,1.27
2019-01-17T11:13:55.265Z,1.80
2019-01-17T11:16:38.605Z,1.80
2019-01-17T11:19:44.515Z,1.70
2019-01-17T11:22:50.511Z,1.63
2019-01-17T11:25:34.817Z,1.63
2019-01-17T11:28:22.831Z,1.20
2019-01-17T11:31:29.829Z,1.73
2019-01-17T11:34:35.895Z,1.10
2019-01-17T11:37:35.265Z,1.10
2019-01-17T11:40:45.646Z,0.80
2019-01-17T11:43:27.745Z,1.07
2019-01-17T11:46:33.868Z,1.10
2019-01-17T11:49:15.192Z,0.80
2019-01-17T11:52:21.215Z,1.10
2019-01-17T11:55:02.439Z,0.90
2019-01-17T11:58:10.373Z,1.43
2019-01-17T12:01:16.492Z,1.03
2019-01-17T12:04:16.449Z,1.00
2019-01-17T12:07:17.533Z,1.30
2019-01-17T12:09:57.285Z,1.40
2019-01-17T12:12:43.661Z,0.93
2019-01-17T12:15:10.272Z,0.97
2019-01-17T12:17:56.541Z,1.00
2019-01-17T12:20:42.795Z,1.63
2019-01-17T12:23:09.329Z,1.13
2019-01-17T12:25:55.834Z,1.30
2019-01-17T12:28:35.576Z,1.47
2019-01-17T12:31:21.862Z,0.93
2019-01-17T12:34:01.841Z,1.73
2019-01-17T12:36:48.084Z,1.20
2019-01-17T12:39:28.262Z,1.00
2019-01-17T12:42:14.531Z,0.90
2019-01-17T12:44:55.433Z,0.83
2019-01-17T12:47:41.671Z,0.73
2019-01-17T12:50:21.554Z,1.50
2019-01-17T12:53:07.831Z,0.90
2019-01-17T12:55:34.241Z,1.73
2019-01-17T12:58:20.670Z,0.90
2019-01-17T13:01:00.739Z,0.73
2019-01-17T13:03:47.107Z,0.70
2019-01-17T13:06:28.911Z,1.13
2019-01-17T13:08:55.302Z,0.93
2019-01-17T13:11:41.607Z,1.23
2019-01-17T13:14:23.352Z,0.87
2019-01-17T13:17:09.598Z,0.70
2019-01-17T13:19:49.412Z,0.60
2019-01-17T13:22:35.842Z,1.23
2019-01-17T13:25:16.311Z,1.63
2019-01-17T13:28:02.631Z,1.27
2019-01-17T13:30:42.950Z,0.87
2019-01-17T13:33:29.222Z,0.97
2019-01-17T13:36:10.723Z,1.10
2019-01-17T13:38:56.967Z,0.73
2019-01-17T13:41:36.550Z,0.97
2019-01-17T13:44:22.822Z,0.70
2019-01-17T13:46:49.404Z,0.73
2019-01-17T13:49:35.678Z,0.70
2019-01-17T13:52:02.279Z,0.70
2019-01-17T13:54:28.804Z,0.90
2019-01-17T13:57:15.116Z,0.60
2019-01-17T14:00:01.399Z,0.67
2019-01-17T14:02:47.601Z,0.90
2019-01-17T14:05:27.056Z,0.80
2019-01-17T14:08:13.316Z,0.93
2019-01-17T14:10:51.303Z,0.70
2019-01-17T14:13:31.304Z,0.80
2019-01-17T14:16:17.560Z,0.90
2019-01-17T14:18:57.749Z,1.20
2019-01-17T14:21:44.192Z,0.73
2019-01-17T14:24:10.705Z,1.17
2019-01-17T14:26:56.972Z,1.17
2019-01-17T14:29:23.480Z,1.10
2019-01-17T14:32:09.848Z,1.00
2019-01-17T14:34:49.821Z,1.10
2019-01-17T14:37:16.393Z,0.63
2019-01-17T14:40:03.626Z,0.60
2019-01-17T14:42:49.887Z,1.13
2019-01-17T14:45:38.067Z,1.52
2019-01-17T14:48:18.226Z,0.85
2019-01-17T14:50:44.710Z,0.87
2019-01-17T14:53:30.974Z,1.40
2019-01-17T14:56:11.507Z,1.43
2019-01-17T14:58:57.860Z,0.63
2019-01-17T15:01:25.833Z,1.10
2019-01-17T15:03:52.403Z,1.70
2019-01-17T15:06:38.638Z,1.10
2019-01-17T15:09:18.583Z,1.60
2019-01-17T15:11:45.082Z,0.93
2019-01-17T15:14:31.461Z,0.90
2019-01-17T15:17:17.799Z,1.20
2019-01-17T15:20:04.401Z,1.10
2019-01-17T15:22:44.954Z,1.37
2019-01-17T15:25:31.764Z,1.40
2019-01-17T15:28:13.475Z,1.33
2019-01-17T15:30:59.743Z,1.30
2019-01-17T15:33:39.729Z,2.20
2019-01-17T15:36:26.550Z,2.37
2019-01-17T15:39:07.280Z,2.53
2019-01-17T15:41:53.457Z,1.20
2019-01-17T15:44:33.664Z,0.80
2019-01-17T15:47:13.768Z,2.80
2019-01-17T15:49:59.935Z,1.30
2019-01-17T15:52:46.192Z,3.30
2019-01-17T15:55:25.655Z,1.33
2019-01-17T15:58:11.996Z,1.10
2019-01-17T16:00:51.681Z,1.20
2019-01-17T16:03:37.927Z,1.37
2019-01-17T16:06:19.777Z,1.45
2019-01-17T16:09:06.068Z,1.57
2019-01-17T16:11:47.439Z,1.20
2019-01-17T16:14:34.134Z,1.52
2019-01-17T16:17:00.793Z,2.10
2019-01-17T16:19:47.013Z,2.53
2019-01-17T16:22:26.560Z,2.70
2019-01-17T16:25:13.032Z,3.50
2019-01-17T16:27:53.163Z,4.05
2019-01-17T16:30:39.741Z,2.87
2019-01-17T16:33:21.123Z,2.62
2019-01-17T16:36:07.388Z,2.10
2019-01-17T16:38:47.296Z,1.95
2019-01-17T16:41:13.720Z,2.12
2019-01-17T16:44:00.016Z,2.80
2019-01-17T16:46:26.534Z,2.40
2019-01-17T16:49:06.605Z,2.10
2019-01-17T16:51:53.184Z,1.30
2019-01-17T16:54:33.458Z,1.93
2019-01-17T16:56:59.851Z,2.00
2019-01-17T16:59:46.330Z,1.97
2019-01-17T17:02:32.730Z,1.60
2019-01-17T17:04:59.316Z,2.80
2019-01-17T17:07:45.818Z,1.60
2019-01-17T17:10:32.141Z,1.90
2019-01-17T17:13:11.626Z,0.90
2019-01-17T17:15:58.039Z,1.13
2019-01-17T17:18:24.734Z,2.40
2019-01-17T17:21:11.193Z,1.10
2019-01-17T17:23:51.229Z,1.30
2019-01-17T17:26:37.493Z,1.20
2019-01-17T17:29:17.701Z,1.10
2019-01-17T17:31:44.264Z,1.40
2019-01-17T17:34:30.679Z,0.87
2019-01-17T17:37:10.291Z,0.80
2019-01-17T17:39:56.543Z,0.83
2019-01-17T17:42:36.496Z,1.40
2019-01-17T17:45:22.835Z,1.47
2019-01-17T17:48:03.987Z,2.13
2019-01-17T17:50:30.826Z,2.10
2019-01-17T17:53:17.751Z,2.58
2019-01-17T17:55:44.300Z,1.90
2019-01-17T17:58:30.694Z,1.10
2019-01-17T18:01:12.574Z,2.63
2019-01-17T18:03:59.030Z,1.53
2019-01-17T18:06:40.178Z,1.80
2019-01-17T18:09:26.541Z,1.90
2019-01-17T18:12:06.963Z,1.62
2019-01-17T18:14:53.212Z,1.60
2019-01-17T18:20:47.365Z,3.27
2019-01-17T18:23:33.597Z,2.77
2019-01-17T18:26:13.636Z,2.07
2019-01-17T18:28:59.924Z,6.67
2019-01-17T18:31:39.935Z,1.15
2019-01-17T18:34:26.189Z,2.02
2019-01-17T18:36:52.694Z,1.12
2019-01-17T18:39:19.321Z,2.02
2019-01-17T18:42:05.701Z,1.13
2019-01-17T18:44:45.628Z,1.35
2019-01-17T18:47:32.375Z,1.30
2019-01-17T18:50:13.546Z,2.02
2019-01-17T18:53:19.530Z,3.22
2019-01-17T18:55:59.208Z,1.30
2019-01-17T18:58:45.601Z,1.00
2019-01-17T19:01:25.154Z,4.30
2019-01-17T19:03:51.748Z,1.50
2019-01-17T19:06:57.868Z,2.15
2019-01-17T19:09:38.884Z,1.30
2019-01-17T19:12:25.281Z,1.82
2019-01-17T19:15:10.329Z,1.85
2019-01-17T19:17:56.548Z,1.40
2019-01-17T19:20:36.411Z,1.98
2019-01-17T19:23:22.701Z,1.40
2019-01-17T19:26:02.606Z,2.02
2019-01-17T19:31:47.072Z,1.42
2019-01-17T19:34:33.432Z,1.55
2019-01-17T19:37:19.810Z,1.70
2019-01-17T19:39:59.621Z,1.47
2019-01-17T19:42:45.853Z,1.35
2019-01-17T19:45:32.217Z,1.35
2019-01-17T19:48:11.802Z,1.15
2019-01-17T19:50:54.077Z,1.25
2019-01-17T19:53:40.589Z,1.40
2019-01-17T19:56:21.102Z,1.60
2019-01-17T19:59:07.366Z,1.07
2019-01-17T20:01:46.919Z,1.22
2019-01-17T20:04:33.153Z,1.35
2019-01-17T20:07:13.195Z,1.25
2019-01-17T20:09:39.813Z,0.90
2019-01-17T20:12:26.163Z,0.90
2019-01-17T20:15:07.070Z,1.37
2019-01-17T20:17:53.332Z,1.02
2019-01-17T20:20:33.894Z,1.40
2019-01-17T20:23:20.436Z,1.92
2019-01-17T20:25:59.780Z,1.45
2019-01-17T20:28:46.167Z,2.05
2019-01-17T20:31:26.484Z,1.77
2019-01-17T20:34:13.218Z,1.57
2019-01-17T20:36:53.187Z,1.60
2019-01-17T20:39:39.453Z,1.67
2019-01-17T20:42:25.708Z,1.62
2019-01-17T20:45:08.107Z,2.07
2019-01-17T20:50:29.614Z,1.27
2019-01-17T20:52:56.286Z,1.37
2019-01-17T20:55:42.673Z,2.33
2019-01-17T20:58:29.091Z,1.85
2019-01-17T21:01:35.143Z,1.27
2019-01-17T21:04:14.828Z,1.45
2019-01-17T21:07:05.680Z,1.80
2019-01-17T21:09:43.010Z,2.00
2019-01-17T21:12:09.672Z,1.80
2019-01-17T21:14:55.810Z,2.90
2019-01-17T21:17:42.427Z,1.95
2019-01-17T21:20:22.265Z,1.98
2019-01-17T21:23:08.506Z,1.47
2019-01-17T21:25:48.487Z,1.30
2019-01-17T21:28:34.751Z,1.40
2019-01-17T21:31:14.545Z,1.67
2019-01-17T21:34:00.807Z,1.50
2019-01-17T21:36:41.046Z,1.70
2019-01-17T21:39:27.483Z,1.35
2019-01-17T21:41:54.095Z,1.50
2019-01-17T21:44:40.377Z,1.42
2019-01-17T21:47:26.527Z,1.27
2019-01-17T21:50:08.659Z,0.80
2019-01-17T21:52:48.738Z,1.72
2019-01-17T21:55:34.979Z,1.70
2019-01-17T21:58:14.578Z,2.00
2019-01-17T22:01:00.878Z,1.50
2019-01-17T22:03:27.412Z,2.12
2019-01-17T22:06:13.728Z,1.20
2019-01-17T22:09:00.016Z,1.30
2019-01-17T22:11:39.884Z,1.10
2019-01-17T22:14:26.121Z,1.00
2019-01-17T22:17:06.058Z,1.02
2019-01-17T22:19:52.312Z,1.17
2019-01-17T22:22:32.692Z,1.10
2019-01-17T22:24:59.172Z,1.20
2019-01-17T22:27:46.335Z,1.17
2019-01-17T22:30:32.604Z,1.27
2019-01-17T22:33:19.189Z,0.93
2019-01-17T22:35:45.685Z,1.80
2019-01-17T22:38:31.941Z,1.30
2019-01-17T22:40:58.995Z,1.30
2019-01-17T22:43:45.284Z,1.67
2019-01-17T22:46:31.528Z,1.10
2019-01-17T22:49:12.345Z,1.00
2019-01-17T22:51:38.772Z,1.30
2019-01-17T22:54:25.071Z,1.25
2019-01-17T22:57:04.906Z,0.95
2019-01-17T22:59:51.172Z,1.35
2019-01-17T23:02:17.781Z,1.15
2019-01-17T23:04:44.275Z,1.60
2019-01-17T23:07:10.795Z,1.00
2019-01-17T23:09:37.285Z,1.10
2019-01-17T23:12:24.324Z,1.42
2019-01-17T23:15:10.559Z,0.93
2019-01-17T23:17:50.262Z,1.17
2019-01-17T23:20:36.978Z,1.07
2019-01-17T23:23:16.617Z,1.00
2019-01-17T23:25:43.178Z,1.45
2019-01-17T23:28:09.714Z,1.92
2019-01-17T23:30:55.996Z,1.22
2019-01-17T23:33:36.504Z,1.12
2019-01-17T23:36:22.825Z,1.02
2019-01-17T23:39:06.072Z,1.30
2019-01-17T23:41:52.422Z,0.98
2019-01-17T23:44:18.918Z,0.75
2019-01-17T23:47:06.547Z,1.17
2019-01-17T23:49:53.323Z,1.22
2019-01-17T23:52:33.133Z,1.00
2019-01-17T23:54:59.647Z,1.20
2019-01-17T23:57:45.905Z,1.00
